createdAt,value
2018-11-10T00:03:37.426Z,41.67
2018-11-10T00:08:40.575Z,41.57
2018-11-10T00:13:43.922Z,42.43
2018-11-10T00:18:47.084Z,42.30
2018-11-10T00:23:50.262Z,42.23
2018-11-10T00:28:53.445Z,55.88
2018-11-10T00:33:56.663Z,41.20
2018-11-10T00:38:59.761Z,41.73
2018-11-10T00:44:02.921Z,40.23
2018-11-10T00:49:06.263Z,40.57
2018-11-10T00:54:09.379Z,38.37
2018-11-10T00:59:12.597Z,37.77
2018-11-10T01:04:15.789Z,37.83
2018-11-10T01:09:18.906Z,37.33
2018-11-10T01:14:22.358Z,36.77
2018-11-10T01:19:25.505Z,40.13
2018-11-10T01:24:28.726Z,40.00
2018-11-10T01:29:31.869Z,37.37
2018-11-10T01:34:34.959Z,37.90
2018-11-10T01:39:38.110Z,37.33
2018-11-10T01:44:41.293Z,37.43
2018-11-10T01:49:44.410Z,37.70
2018-11-10T01:54:47.505Z,39.07
2018-11-10T01:59:50.644Z,35.20
2018-11-10T02:04:53.786Z,39.33
2018-11-10T02:09:56.970Z,38.23
2018-11-10T02:15:00.146Z,37.17
2018-11-10T02:20:03.298Z,35.93
2018-11-10T02:25:07.670Z,37.17
2018-11-10T02:30:11.283Z,34.60
2018-11-10T02:35:14.425Z,35.67
2018-11-10T02:40:17.572Z,32.97
2018-11-10T02:45:20.784Z,43.95
2018-11-10T02:50:23.873Z,34.23
2018-11-10T02:55:27.085Z,33.57
2018-11-10T03:00:30.284Z,32.37
2018-11-10T03:05:33.434Z,30.57
2018-11-10T03:10:36.641Z,41.77
2018-11-10T03:15:39.770Z,32.03
2018-11-10T03:20:42.975Z,32.10
2018-11-10T03:25:46.137Z,31.13
2018-11-10T03:30:49.273Z,44.73
2018-11-10T03:35:52.434Z,33.37
2018-11-10T03:40:55.594Z,31.47
2018-11-10T03:45:58.803Z,33.43
2018-11-10T03:51:01.977Z,31.57
2018-11-10T03:56:05.400Z,44.30
2018-11-10T04:01:08.495Z,33.17
2018-11-10T04:06:11.645Z,32.53
2018-11-10T04:11:14.818Z,33.27
2018-11-10T04:16:17.965Z,34.00
2018-11-10T04:21:21.098Z,33.57
2018-11-10T04:26:24.266Z,34.17
2018-11-10T04:31:27.378Z,33.67
2018-11-10T04:36:30.517Z,34.23
2018-11-10T04:41:33.673Z,46.25
2018-11-10T04:46:36.818Z,35.77
2018-11-10T04:51:39.937Z,47.23
2018-11-10T04:56:43.076Z,46.73
2018-11-10T05:01:46.274Z,38.10
2018-11-10T05:06:49.383Z,48.55
2018-11-10T05:11:52.580Z,36.53
2018-11-10T05:16:55.766Z,34.77
2018-11-10T05:21:58.948Z,35.57
2018-11-10T05:27:02.173Z,34.63
2018-11-10T05:32:05.276Z,36.43
2018-11-10T05:37:08.453Z,40.17
2018-11-10T05:42:11.574Z,36.77
2018-11-10T05:47:14.735Z,37.33
2018-11-10T05:52:17.882Z,39.70
2018-11-10T05:57:21.097Z,52.43
2018-11-10T06:02:24.210Z,38.77
2018-11-10T06:07:27.335Z,52.15
2018-11-10T06:12:30.513Z,37.33
2018-11-10T06:17:33.704Z,39.23
2018-11-10T06:22:36.889Z,37.63
2018-11-10T06:27:40.257Z,39.67
2018-11-10T06:32:43.504Z,40.60
2018-11-10T06:37:46.643Z,41.03
2018-11-10T06:42:49.740Z,41.07
2018-11-10T06:47:52.878Z,57.38
2018-11-10T06:52:56.076Z,43.87
2018-11-10T06:57:59.196Z,44.03
2018-11-10T07:03:02.420Z,44.13
2018-11-10T07:08:06.365Z,45.93
2018-11-10T07:13:09.495Z,47.73
2018-11-10T07:18:12.816Z,47.87
2018-11-10T07:23:15.968Z,49.10
2018-11-10T07:28:19.092Z,47.00
2018-11-10T07:33:22.275Z,46.50
2018-11-10T07:38:25.431Z,45.33
2018-11-10T07:43:28.615Z,46.00
2018-11-10T07:48:31.743Z,45.27
2018-11-10T07:53:35.094Z,43.30
2018-11-10T07:58:38.281Z,43.87
2018-11-10T08:03:41.426Z,43.30
2018-11-10T08:08:44.574Z,42.83
2018-11-10T08:13:47.773Z,58.35
2018-11-10T08:18:50.964Z,43.90
2018-11-10T08:23:54.089Z,41.53
2018-11-10T08:28:57.277Z,38.77
2018-11-10T08:34:00.383Z,40.90
2018-11-10T08:39:04.015Z,40.37
2018-11-10T08:44:07.578Z,54.53
2018-11-10T08:49:10.782Z,41.60
2018-11-10T08:54:13.845Z,37.10
2018-11-10T08:59:17.085Z,40.10
2018-11-10T09:04:20.209Z,40.03
2018-11-10T09:09:23.359Z,37.60
2018-11-10T09:14:27.147Z,37.50
2018-11-10T09:19:30.361Z,37.80
2018-11-10T09:24:33.565Z,38.50
2018-11-10T09:29:36.754Z,38.00
2018-11-10T09:34:39.901Z,37.57
2018-11-10T09:39:43.056Z,33.93
2018-11-10T09:44:46.198Z,35.73
2018-11-10T09:49:49.332Z,33.80
2018-11-10T09:54:52.473Z,34.87
2018-11-10T09:59:55.669Z,33.90
2018-11-10T10:04:58.826Z,32.03
2018-11-10T10:10:01.934Z,31.60
2018-11-10T10:15:06.124Z,32.73
2018-11-10T10:20:11.695Z,30.43
2018-11-10T10:25:15.620Z,31.43
2018-11-10T10:30:20.363Z,30.50
2018-11-10T10:35:23.668Z,31.57
2018-11-10T10:40:26.828Z,29.13
2018-11-10T10:45:30.010Z,39.20
2018-11-10T10:50:33.179Z,29.00
2018-11-10T10:55:37.453Z,36.40
2018-11-10T11:00:59.712Z,28.77
2018-11-10T11:06:03.000Z,34.47
2018-11-10T11:11:06.193Z,28.60
2018-11-10T11:16:09.398Z,26.13
2018-11-10T11:21:12.509Z,25.57
2018-11-10T11:26:15.662Z,32.28
2018-11-10T11:31:18.828Z,26.80
2018-11-10T11:36:22.053Z,28.30
2018-11-10T11:41:25.332Z,28.20
2018-11-10T11:46:28.359Z,33.50
2018-11-10T11:51:31.578Z,26.03
2018-11-10T11:56:35.257Z,26.73
2018-11-10T12:01:38.449Z,26.90
2018-11-10T12:06:41.619Z,25.83
2018-11-10T12:11:44.764Z,31.23
2018-11-10T12:16:48.003Z,29.73
2018-11-10T12:21:51.150Z,24.50
2018-11-10T12:26:54.416Z,30.20
2018-11-10T12:31:57.691Z,22.57
2018-11-10T12:37:00.706Z,23.67
2018-11-10T12:42:03.839Z,23.53
2018-11-10T12:47:07.061Z,23.70
2018-11-10T12:52:10.173Z,22.23
2018-11-10T12:57:13.382Z,28.50
2018-11-10T13:02:16.525Z,22.70
2018-11-10T13:07:20.537Z,22.47
2018-11-10T13:12:23.823Z,22.27
2018-11-10T13:17:27.095Z,22.17
2018-11-10T13:22:30.100Z,23.80
2018-11-10T13:27:33.262Z,25.30
2018-11-10T13:32:36.391Z,24.63
2018-11-10T13:37:39.491Z,29.00
2018-11-10T13:42:42.638Z,31.60
2018-11-10T13:47:45.773Z,24.57
2018-11-10T13:52:49.201Z,24.00
2018-11-10T13:57:52.046Z,26.23
2018-11-10T14:02:55.251Z,24.47
2018-11-10T14:07:58.394Z,24.90
2018-11-10T14:13:01.532Z,25.60
2018-11-10T14:18:04.639Z,24.13
2018-11-10T14:23:07.741Z,25.70
2018-11-10T14:28:10.902Z,24.90
2018-11-10T14:33:14.093Z,24.50
2018-11-10T14:38:17.222Z,31.03
2018-11-10T14:43:20.407Z,25.17
2018-11-10T14:48:23.529Z,25.93
2018-11-10T14:53:26.702Z,22.37
2018-11-10T14:58:29.862Z,23.03
2018-11-10T15:03:32.987Z,23.43
2018-11-10T15:08:36.164Z,20.97
2018-11-10T15:13:39.338Z,16.03
2018-11-10T15:18:42.529Z,16.27
2018-11-10T15:23:45.674Z,19.33
2018-11-10T15:28:48.789Z,16.47
2018-11-10T15:33:52.002Z,16.75
2018-11-10T15:38:55.082Z,18.48
2018-11-10T15:43:58.286Z,13.47
2018-11-10T15:49:01.396Z,12.27
2018-11-10T15:54:04.889Z,12.27
2018-11-10T15:59:08.674Z,13.85
2018-11-10T16:04:11.901Z,13.15
2018-11-10T16:09:15.062Z,10.80
2018-11-10T16:14:18.139Z,11.80
2018-11-10T16:19:21.296Z,10.43
2018-11-10T16:24:24.420Z,9.10
2018-11-10T16:29:27.570Z,10.78
2018-11-10T16:34:30.746Z,8.67
2018-11-10T16:39:33.909Z,8.43
2018-11-10T16:44:37.074Z,8.20
2018-11-10T16:49:40.152Z,8.30
2018-11-10T16:54:43.324Z,7.47
2018-11-10T16:59:46.513Z,7.67
2018-11-10T17:04:49.642Z,8.23
2018-11-10T17:09:52.813Z,7.80
2018-11-10T17:14:55.973Z,7.23
2018-11-10T17:19:59.128Z,8.30
2018-11-10T17:25:02.296Z,7.63
2018-11-10T17:30:11.383Z,6.47
2018-11-10T17:35:14.876Z,6.53
2018-11-10T17:40:18.032Z,7.10
2018-11-10T17:45:21.151Z,7.57
2018-11-10T17:50:24.296Z,7.80
2018-11-10T17:55:27.455Z,8.30
2018-11-10T18:00:30.690Z,8.33
2018-11-10T18:05:33.794Z,11.10
2018-11-10T18:10:36.944Z,10.53
2018-11-10T18:15:40.098Z,10.30
2018-11-10T18:20:43.286Z,10.37
2018-11-10T18:25:46.397Z,9.93
2018-11-10T18:30:49.579Z,10.20
2018-11-10T18:35:52.688Z,5.57
2018-11-10T18:40:55.876Z,5.63
2018-11-10T18:45:58.982Z,6.33
2018-11-10T18:51:02.316Z,4.13
2018-11-10T18:56:05.533Z,5.63
2018-11-10T19:01:08.675Z,4.77
2018-11-10T19:06:11.867Z,3.97
2018-11-10T19:11:15.153Z,4.50
2018-11-10T19:16:18.308Z,3.67
2018-11-10T19:21:21.557Z,3.67
2018-11-10T19:26:24.796Z,3.47
2018-11-10T19:31:28.001Z,3.57
2018-11-10T19:36:31.108Z,3.97
2018-11-10T19:41:34.253Z,3.97
2018-11-10T19:46:38.032Z,4.00
2018-11-10T19:51:41.488Z,4.13
2018-11-10T19:56:44.394Z,4.63
2018-11-10T20:01:47.600Z,5.50
2018-11-10T20:06:50.826Z,6.50
2018-11-10T20:11:54.011Z,5.93
2018-11-10T20:16:57.134Z,5.67
2018-11-10T20:22:00.358Z,6.17
2018-11-10T20:27:03.580Z,5.43
2018-11-10T20:32:06.669Z,6.30
2018-11-10T20:37:09.824Z,6.40
2018-11-10T20:42:12.990Z,7.40
2018-11-10T20:47:16.188Z,7.63
2018-11-10T20:52:19.350Z,7.10
2018-11-10T20:57:22.457Z,6.70
2018-11-10T21:02:25.955Z,5.50
2018-11-10T21:07:29.116Z,5.63
2018-11-10T21:12:32.237Z,5.70
2018-11-10T21:17:35.645Z,6.30
2018-11-10T21:22:38.794Z,6.20
2018-11-10T21:27:42.160Z,4.80
2018-11-10T21:32:45.890Z,5.93
2018-11-10T21:37:49.061Z,4.87
2018-11-10T21:42:52.229Z,4.10
2018-11-10T21:47:55.403Z,5.20
2018-11-10T21:52:58.553Z,5.07
2018-11-10T21:58:01.703Z,4.33
2018-11-10T22:03:04.859Z,4.33
2018-11-10T22:08:07.969Z,5.80
2018-11-10T22:13:11.085Z,6.13
2018-11-10T22:18:14.219Z,7.00
2018-11-10T22:23:17.365Z,7.03
2018-11-10T22:28:20.545Z,9.20
2018-11-10T22:33:23.700Z,6.63
2018-11-10T22:38:26.815Z,8.83
2018-11-10T22:43:29.980Z,10.70
2018-11-10T22:48:33.170Z,13.73
2018-11-10T22:53:36.298Z,15.00
2018-11-10T22:58:39.475Z,15.77
2018-11-10T23:03:42.638Z,16.10
2018-11-10T23:08:45.812Z,14.53
2018-11-10T23:13:48.979Z,8.63
2018-11-10T23:18:52.103Z,24.73
2018-11-10T23:23:55.204Z,10.43
2018-11-10T23:28:58.339Z,10.13
2018-11-10T23:34:01.448Z,11.27
2018-11-10T23:39:08.204Z,14.60
2018-11-10T23:44:11.713Z,15.48
2018-11-10T23:49:14.895Z,13.90
2018-11-10T23:54:18.142Z,16.80
2018-11-10T23:59:21.162Z,19.33
